Time;durP1;ratioP1;P1;durP2;ratioP2;P2;SDS_P1;SDS_P2;PMS_P1;PMS_P2;Temp;Humidity;BMP_temperature;BMP_pressure;BME280_temperature;BME280_humidity;BME280_pressure;Samples;Min_cycle;Max_cycle;Signal;HPM_P1;HPM_P2
2021/11/07 00:01:06;;;;;;;42.13;19.48;;;5.00;99.90;;;;;;5050399;28;20207;-78
2021/11/07 00:03:40;;;;;;;34.22;19.27;;;5.00;99.90;;;;;;5056220;28;20219;-78
2021/11/07 00:06:11;;;;;;;36.95;18.02;;;5.00;99.90;;;;;;5055434;28;20242;-77
2021/11/07 00:08:50;;;;;;;31.30;17.13;;;5.00;99.90;;;;;;5054544;28;20210;-79
2021/11/07 00:11:31;;;;;;;38.70;19.23;;;5.00;99.90;;;;;;5055361;28;20223;-77
2021/11/07 00:13:58;;;;;;;33.83;19.40;;;5.10;99.90;;;;;;5054941;28;20226;-78
2021/11/07 00:16:27;;;;;;;37.38;18.00;;;5.10;99.90;;;;;;5046817;28;20306;-78
2021/11/07 00:21:47;;;;;;;39.58;19.65;;;5.10;99.90;;;;;;5043233;28;20199;-79
2021/11/07 00:24:16;;;;;;;38.45;17.98;;;5.10;99.90;;;;;;5044805;28;20294;-77
2021/11/07 00:26:55;;;;;;;40.47;18.90;;;5.10;99.90;;;;;;5045658;28;20220;-79
2021/11/07 00:29:25;;;;;;;39.10;18.77;;;5.10;99.90;;;;;;5042093;28;20262;-78
2021/11/07 00:31:59;;;;;;;39.42;19.00;;;5.10;99.90;;;;;;5042095;28;20204;-77
2021/11/07 00:35:01;;;;;;;39.15;20.08;;;5.10;99.90;;;;;;5041277;28;20227;-77
2021/11/07 00:37:31;;;;;;;38.40;19.00;;;5.10;99.90;;;;;;5042398;28;20207;-78
2021/11/07 00:40:08;;;;;;;41.33;20.15;;;5.10;99.90;;;;;;5043693;28;20294;-77
2021/11/07 00:42:43;;;;;;;45.55;19.65;;;5.20;99.90;;;;;;5046829;28;20230;-78
2021/11/07 00:45:22;;;;;;;42.05;19.88;;;5.20;99.90;;;;;;5041088;28;20245;-79
2021/11/07 00:47:59;;;;;;;40.67;19.05;;;5.30;99.90;;;;;;5040363;28;20191;-78
2021/11/07 00:50:33;;;;;;;51.92;19.88;;;5.30;99.90;;;;;;5040735;28;20195;-78
2021/11/07 00:53:15;;;;;;;42.30;18.45;;;5.20;99.90;;;;;;5041887;28;20198;-77
2021/11/07 00:55:47;;;;;;;43.33;18.80;;;5.20;99.90;;;;;;5039862;28;20657;-78
2021/11/07 00:58:16;;;;;;;51.85;20.73;;;5.20;99.90;;;;;;5040328;28;20191;-78
2021/11/07 01:00:49;;;;;;;42.45;17.90;;;5.30;99.90;;;;;;5039401;28;20199;-79
2021/11/07 01:03:17;;;;;;;55.65;20.73;;;5.30;99.90;;;;;;5041583;28;20223;-78
2021/11/07 01:05:45;;;;;;;54.03;20.20;;;5.30;99.90;;;;;;5048552;28;20218;-77
2021/11/07 01:08:12;;;;;;;45.80;20.40;;;5.30;99.90;;;;;;5047471;28;20281;-78
2021/11/07 01:10:39;;;;;;;52.47;21.17;;;5.30;99.90;;;;;;5049567;28;20204;-77
2021/11/07 01:13:06;;;;;;;52.05;21.48;;;5.20;99.90;;;;;;5047780;28;20204;-77
2021/11/07 01:15:36;;;;;;;58.08;19.60;;;5.20;99.90;;;;;;5044758;28;20297;-78
2021/11/07 01:18:03;;;;;;;64.43;21.20;;;5.20;99.90;;;;;;5040588;28;20207;-79
2021/11/07 01:20:31;;;;;;;58.17;20.70;;;5.10;99.90;;;;;;5040632;28;20215;-78
2021/11/07 01:23:08;;;;;;;42.97;17.85;;;5.20;99.90;;;;;;5041624;28;20273;-78
2021/11/07 01:25:41;;;;;;;47.88;19.80;;;5.10;99.90;;;;;;5029493;28;20192;-78
2021/11/07 01:28:09;;;;;;;51.67;20.27;;;5.10;99.90;;;;;;5030469;28;20261;-78
2021/11/07 01:30:39;;;;;;;58.88;20.98;;;5.10;99.90;;;;;;5029460;28;20298;-78
2021/11/07 01:33:11;;;;;;;50.10;20.30;;;5.10;99.90;;;;;;5031047;28;20192;-78
2021/11/07 01:35:42;;;;;;;64.72;22.38;;;5.20;99.90;;;;;;5051287;28;20226;-76
2021/11/07 01:38:14;;;;;;;60.67;20.98;;;5.20;99.90;;;;;;5052610;28;20303;-78
2021/11/07 01:40:46;;;;;;;59.78;20.70;;;5.20;99.90;;;;;;5049828;28;20195;-77
2021/11/07 01:43:14;;;;;;;53.53;21.45;;;5.20;99.90;;;;;;5047601;28;20291;-78
2021/11/07 01:45:44;;;;;;;61.25;21.05;;;5.10;99.90;;;;;;5046416;28;20212;-78
2021/11/07 01:48:15;;;;;;;53.33;21.05;;;5.10;99.90;;;;;;5049523;28;20207;-78
2021/11/07 01:50:45;;;;;;;54.28;21.08;;;5.10;99.90;;;;;;5043838;28;20204;-78
2021/11/07 01:53:22;;;;;;;60.65;22.75;;;5.20;99.90;;;;;;5042776;28;20207;-78
2021/11/07 01:55:49;;;;;;;66.47;21.90;;;5.20;99.90;;;;;;5044645;28;20306;-78
2021/11/07 01:58:16;;;;;;;54.50;21.52;;;5.20;99.90;;;;;;5041325;28;20218;-78
2021/11/07 02:00:45;;;;;;;60.75;23.90;;;5.20;99.90;;;;;;5042225;28;20271;-78
2021/11/07 02:03:12;;;;;;;60.00;22.52;;;5.20;99.90;;;;;;5043996;28;20330;-77
2021/11/07 02:05:40;;;;;;;65.75;22.08;;;5.30;99.90;;;;;;5051035;28;20196;-77
2021/11/07 02:08:07;;;;;;;65.15;23.25;;;5.30;99.90;;;;;;5051861;28;20204;-77
2021/11/07 02:10:37;;;;;;;67.00;24.10;;;5.30;99.90;;;;;;5044621;28;20211;-78
2021/11/07 02:13:04;;;;;;;76.70;21.85;;;5.30;99.90;;;;;;5045378;28;20203;-78
2021/11/07 02:15:32;;;;;;;63.03;22.92;;;5.30;99.90;;;;;;5045165;28;20318;-78
2021/11/07 02:17:59;;;;;;;70.18;23.17;;;5.30;99.90;;;;;;5045807;28;20214;-77
2021/11/07 02:20:29;;;;;;;68.53;24.65;;;5.40;99.90;;;;;;5047702;28;20218;-77
2021/11/07 02:22:58;;;;;;;64.03;23.10;;;5.40;99.90;;;;;;5047917;28;20225;-77
2021/11/07 02:25:26;;;;;;;75.05;25.20;;;5.50;99.90;;;;;;5043575;28;20203;-77
2021/11/07 02:27:53;;;;;;;74.30;23.92;;;5.40;99.90;;;;;;5047025;28;20283;-77
2021/11/07 02:30:21;;;;;;;75.82;25.38;;;5.40;99.90;;;;;;5044415;28;20238;-77
2021/11/07 02:32:50;;;;;;;74.55;24.23;;;5.50;99.90;;;;;;5043393;28;20271;-78
2021/11/07 02:35:19;;;;;;;71.05;26.23;;;5.50;99.90;;;;;;5043909;28;20234;-78
2021/11/07 02:37:48;;;;;;;78.35;26.30;;;5.60;99.90;;;;;;5044385;28;20262;-78
2021/11/07 02:40:17;;;;;;;74.88;26.75;;;5.60;99.90;;;;;;5041317;28;20299;-77
2021/11/07 02:42:45;;;;;;;74.03;27.58;;;5.60;99.90;;;;;;5041378;28;20241;-77
2021/11/07 02:45:14;;;;;;;68.20;26.65;;;5.60;99.90;;;;;;5044146;28;20219;-79
2021/11/07 02:47:41;;;;;;;71.40;27.83;;;5.70;99.90;;;;;;5043391;28;20249;-78
2021/11/07 02:50:09;;;;;;;77.43;29.23;;;5.70;99.90;;;;;;5042385;28;20213;-77
2021/11/07 02:52:36;;;;;;;72.63;29.33;;;5.70;99.90;;;;;;5044020;28;20214;-78
2021/11/07 02:55:05;;;;;;;66.63;28.63;;;5.70;99.90;;;;;;5043701;28;20223;-78
2021/11/07 02:57:33;;;;;;;67.68;27.50;;;5.80;99.90;;;;;;5042801;28;20203;-78
2021/11/07 03:00:03;;;;;;;63.85;28.20;;;5.80;99.90;;;;;;5044535;28;20231;-78
2021/11/07 03:02:31;;;;;;;60.70;26.80;;;5.80;99.90;;;;;;5042875;28;20628;-78
2021/11/07 03:04:59;;;;;;;60.92;27.23;;;5.80;99.90;;;;;;5042312;28;20649;-78
2021/11/07 03:07:26;;;;;;;52.60;25.60;;;5.80;99.90;;;;;;5043617;28;20660;-78
2021/11/07 03:09:53;;;;;;;61.40;26.42;;;5.80;99.90;;;;;;5044715;28;20246;-79
2021/11/07 03:12:21;;;;;;;50.50;24.83;;;5.90;99.90;;;;;;5043509;28;20633;-79
2021/11/07 03:14:50;;;;;;;52.25;25.75;;;5.90;99.90;;;;;;5043880;28;20255;-79
2021/11/07 03:17:21;;;;;;;45.08;23.80;;;5.90;99.90;;;;;;5043400;28;20199;-78
2021/11/07 03:19:48;;;;;;;50.83;22.92;;;5.90;99.90;;;;;;5043270;28;20218;-78
2021/11/07 03:22:17;;;;;;;46.25;24.10;;;5.90;99.90;;;;;;5043347;28;20207;-79
2021/11/07 03:24:51;;;;;;;43.63;23.27;;;6.00;99.90;;;;;;5043365;28;20268;-79
2021/11/07 03:27:28;;;;;;;45.40;23.30;;;6.00;99.90;;;;;;5044107;28;20227;-79
2021/11/07 03:29:57;;;;;;;42.08;23.88;;;6.00;99.90;;;;;;5050070;28;20235;-77
2021/11/07 03:32:26;;;;;;;44.13;22.55;;;6.00;99.90;;;;;;5049744;28;20370;-78
2021/11/07 03:34:59;;;;;;;47.00;22.05;;;6.00;99.90;;;;;;5047733;28;20235;-78
2021/11/07 03:37:29;;;;;;;41.80;22.60;;;6.00;99.90;;;;;;5047256;28;20261;-78
2021/11/07 03:39:58;;;;;;;38.92;22.38;;;6.00;99.90;;;;;;5047134;28;20215;-78
2021/11/07 03:42:29;;;;;;;38.30;20.30;;;6.00;99.90;;;;;;5047609;28;20569;-78
2021/11/07 03:44:56;;;;;;;36.05;20.92;;;6.00;99.90;;;;;;5050331;28;20227;-78
2021/11/07 03:47:25;;;;;;;37.30;20.20;;;6.00;99.90;;;;;;5049834;28;20222;-78
2021/11/07 03:49:52;;;;;;;36.40;18.90;;;6.00;99.90;;;;;;5047469;28;20211;-77
2021/11/07 03:52:19;;;;;;;31.65;19.58;;;6.00;99.90;;;;;;5048092;28;20214;-77
2021/11/07 03:54:47;;;;;;;35.33;19.50;;;6.00;99.90;;;;;;5046921;28;20243;-79
2021/11/07 03:57:14;;;;;;;31.83;19.25;;;6.00;99.90;;;;;;5046270;28;20650;-78
2021/11/07 03:59:45;;;;;;;37.47;21.13;;;6.00;99.90;;;;;;5046992;28;20281;-78
2021/11/07 04:02:13;;;;;;;31.70;18.73;;;6.00;99.90;;;;;;5052143;28;20255;-77
2021/11/07 04:04:40;;;;;;;34.33;19.25;;;6.00;99.90;;;;;;5055671;28;20235;-79
2021/11/07 04:07:07;;;;;;;36.53;20.00;;;6.00;99.90;;;;;;5054099;28;20234;-78
2021/11/07 04:09:34;;;;;;;35.97;20.17;;;6.00;99.90;;;;;;5054019;28;20283;-78
2021/11/07 04:12:02;;;;;;;32.80;18.60;;;6.00;99.90;;;;;;5055552;28;20238;-78
2021/11/07 04:14:33;;;;;;;34.88;19.55;;;6.00;99.90;;;;;;5055233;28;20274;-78
2021/11/07 04:17:01;;;;;;;34.83;19.92;;;6.00;99.90;;;;;;5055120;28;20202;-78
2021/11/07 04:19:28;;;;;;;32.95;18.35;;;6.00;99.90;;;;;;5055046;28;20218;-78
2021/11/07 04:21:59;;;;;;;32.78;19.80;;;6.00;99.90;;;;;;5055002;28;20211;-78
2021/11/07 04:24:26;;;;;;;39.10;21.15;;;6.10;99.90;;;;;;5057194;28;20232;-78
2021/11/07 04:26:53;;;;;;;35.22;18.98;;;6.10;99.90;;;;;;5057350;28;20487;-78
2021/11/07 04:29:20;;;;;;;33.28;18.77;;;6.10;99.90;;;;;;5058017;28;20230;-78
2021/11/07 04:31:47;;;;;;;29.30;18.85;;;6.10;99.90;;;;;;5057164;28;20243;-78
2021/11/07 04:34:16;;;;;;;33.80;20.52;;;6.10;99.90;;;;;;5057049;28;20224;-78
2021/11/07 04:36:43;;;;;;;40.72;20.08;;;6.10;99.90;;;;;;5057649;28;20275;-79
2021/11/07 04:39:10;;;;;;;33.63;18.70;;;6.10;99.90;;;;;;5054416;28;20271;-78
2021/11/07 04:41:37;;;;;;;35.42;20.35;;;6.10;99.90;;;;;;5054710;28;20214;-77
2021/11/07 04:44:05;;;;;;;37.13;19.23;;;6.10;99.90;;;;;;5056298;28;20254;-77
2021/11/07 04:46:33;;;;;;;31.83;18.25;;;6.10;99.90;;;;;;5055500;28;20222;-77
2021/11/07 04:49:01;;;;;;;32.38;18.58;;;6.10;99.90;;;;;;5056957;28;20220;-78
2021/11/07 04:51:29;;;;;;;33.22;18.55;;;6.10;99.90;;;;;;5056778;28;20207;-78
2021/11/07 04:53:56;;;;;;;38.65;20.13;;;6.10;99.90;;;;;;5051969;28;20242;-78
2021/11/07 04:56:23;;;;;;;32.40;19.50;;;6.10;99.90;;;;;;5041868;28;20660;-78
2021/11/07 04:58:50;;;;;;;39.00;20.08;;;6.10;99.90;;;;;;5041482;28;20582;-77
2021/11/07 05:01:17;;;;;;;38.17;20.85;;;6.10;99.90;;;;;;5037506;28;20265;-77
2021/11/07 05:03:44;;;;;;;39.25;19.55;;;6.10;99.90;;;;;;5036223;28;20321;-77
2021/11/07 05:06:11;;;;;;;34.80;20.40;;;6.10;99.90;;;;;;5033969;28;20237;-77
2021/11/07 05:08:39;;;;;;;35.70;18.67;;;6.10;99.90;;;;;;5037508;28;20304;-79
2021/11/07 05:11:06;;;;;;;39.03;19.95;;;6.10;99.90;;;;;;5036540;28;20808;-77
2021/11/07 05:13:33;;;;;;;40.72;19.15;;;6.00;99.90;;;;;;5036554;28;20245;-77
2021/11/07 05:16:00;;;;;;;39.72;20.55;;;6.00;99.90;;;;;;5036485;28;20274;-77
2021/11/07 05:18:27;;;;;;;32.05;17.80;;;5.90;99.90;;;;;;5035869;28;20290;-77
2021/11/07 05:20:54;;;;;;;35.33;18.70;;;6.00;99.90;;;;;;5036039;28;20220;-77
2021/11/07 05:23:20;;;;;;;31.23;18.50;;;5.90;99.90;;;;;;5036875;28;20584;-78
2021/11/07 05:25:49;;;;;;;38.90;19.05;;;5.90;99.90;;;;;;5041430;28;20262;-78
2021/11/07 05:28:16;;;;;;;37.28;19.27;;;5.90;99.90;;;;;;5030908;28;20216;-78
2021/11/07 05:30:44;;;;;;;34.85;18.55;;;5.80;99.90;;;;;;5036540;28;20605;-78
2021/11/07 05:33:11;;;;;;;32.22;17.42;;;5.80;99.90;;;;;;5054385;28;20191;-77
2021/11/07 05:35:38;;;;;;;35.17;17.63;;;5.80;99.90;;;;;;5048620;28;20226;-78
2021/11/07 05:38:05;;;;;;;35.13;18.45;;;5.80;99.90;;;;;;5039964;28;20264;-78
2021/11/07 05:40:33;;;;;;;36.92;18.23;;;5.90;99.90;;;;;;5034249;28;20203;-77
2021/11/07 05:43:01;;;;;;;31.05;17.00;;;5.80;99.90;;;;;;5033678;28;20322;-78
2021/11/07 05:45:28;;;;;;;31.63;18.02;;;5.80;99.90;;;;;;5034086;28;20697;-78
2021/11/07 05:47:55;;;;;;;31.75;17.48;;;5.80;99.90;;;;;;5034298;28;20203;-77
2021/11/07 05:50:23;;;;;;;29.08;16.38;;;5.80;99.90;;;;;;5034553;28;20205;-78
2021/11/07 05:52:51;;;;;;;28.85;16.50;;;5.80;99.80;;;;;;5033628;28;20547;-77
2021/11/07 05:55:19;;;;;;;37.50;17.80;;;5.80;99.80;;;;;;5033928;28;20265;-77
2021/11/07 05:57:45;;;;;;;29.77;17.40;;;5.80;99.70;;;;;;5035315;28;20209;-77
2021/11/07 06:00:16;;;;;;;34.63;19.27;;;5.80;99.00;;;;;;5035766;28;20213;-77
2021/11/07 06:02:43;;;;;;;31.92;17.65;;;5.80;99.00;;;;;;5044435;28;20231;-77
2021/11/07 06:05:11;;;;;;;31.65;16.75;;;5.70;98.90;;;;;;5041581;28;20326;-77
2021/11/07 06:07:38;;;;;;;29.77;17.92;;;5.70;98.90;;;;;;5041317;28;20199;-77
2021/11/07 06:10:06;;;;;;;28.48;16.25;;;5.70;98.80;;;;;;5041447;28;20564;-77
2021/11/07 06:12:32;;;;;;;37.92;18.80;;;5.70;98.60;;;;;;5039786;28;20275;-77
2021/11/07 06:15:00;;;;;;;29.60;16.20;;;5.60;98.40;;;;;;5038274;28;20231;-77
2021/11/07 06:17:28;;;;;;;35.75;17.55;;;5.60;98.70;;;;;;5037052;28;20297;-76
2021/11/07 06:19:55;;;;;;;30.23;16.00;;;5.60;98.80;;;;;;5034796;28;20238;-77
2021/11/07 06:22:22;;;;;;;30.05;16.95;;;5.60;98.40;;;;;;5034482;28;20211;-77
2021/11/07 06:24:49;;;;;;;33.15;17.35;;;5.60;98.30;;;;;;5033555;28;20739;-79
2021/11/07 06:27:16;;;;;;;27.58;16.33;;;5.50;98.80;;;;;;5034398;28;20207;-78
2021/11/07 06:29:43;;;;;;;27.15;16.10;;;5.60;99.00;;;;;;5033028;28;20273;-78
2021/11/07 06:32:11;;;;;;;34.05;17.15;;;5.60;99.00;;;;;;5032804;28;20211;-78
2021/11/07 06:34:40;;;;;;;27.58;14.60;;;5.60;98.90;;;;;;5032269;28;20705;-78
2021/11/07 06:37:08;;;;;;;28.40;15.40;;;5.70;98.80;;;;;;5032659;28;20203;-77
2021/11/07 06:39:35;;;;;;;25.40;14.70;;;5.80;98.20;;;;;;5032787;28;20629;-79
2021/11/07 06:42:03;;;;;;;27.38;13.70;;;5.80;97.30;;;;;;5032475;28;20211;-79
2021/11/07 06:44:31;;;;;;;34.88;16.73;;;5.80;96.90;;;;;;5032075;28;20391;-77
2021/11/07 06:46:58;;;;;;;24.85;14.93;;;5.80;96.60;;;;;;5032640;28;20207;-77
2021/11/07 06:49:25;;;;;;;23.33;14.45;;;5.80;96.00;;;;;;5032306;28;20287;-77
2021/11/07 06:51:54;;;;;;;22.77;13.90;;;5.80;95.50;;;;;;5032747;28;20253;-78
2021/11/07 06:54:22;;;;;;;23.10;14.70;;;5.80;95.50;;;;;;5032194;28;20230;-78
2021/11/07 06:56:49;;;;;;;22.88;13.93;;;5.70;95.50;;;;;;5028344;28;20278;-77
2021/11/07 06:59:16;;;;;;;26.45;15.38;;;5.70;95.80;;;;;;5031832;28;20289;-78
2021/11/07 07:01:43;;;;;;;28.35;15.68;;;5.70;96.50;;;;;;5032053;28;20585;-77
2021/11/07 07:04:10;;;;;;;27.00;15.70;;;5.60;96.30;;;;;;5031374;28;20310;-78
2021/11/07 07:06:37;;;;;;;26.98;14.80;;;5.60;96.90;;;;;;5032386;28;20553;-77
2021/11/07 07:09:07;;;;;;;25.85;15.50;;;5.60;97.20;;;;;;5032840;28;20207;-79
2021/11/07 07:11:38;;;;;;;29.63;15.70;;;5.70;97.20;;;;;;5039013;28;20285;-78
2021/11/07 07:14:08;;;;;;;25.20;14.85;;;5.70;97.20;;;;;;5038537;28;20262;-77
2021/11/07 07:16:43;;;;;;;29.60;15.18;;;5.70;97.10;;;;;;5037459;28;20239;-77
2021/11/07 07:22:08;;;;;;;25.20;15.35;;;5.80;97.20;;;;;;5033698;28;20199;-77
2021/11/07 07:27:36;;;;;;;25.55;15.98;;;6.00;96.00;;;;;;5023616;28;20209;-77
2021/11/07 07:30:15;;;;;;;27.05;15.65;;;6.00;95.20;;;;;;5031455;28;20203;-79
2021/11/07 07:32:58;;;;;;;25.52;15.20;;;6.10;94.00;;;;;;5032687;28;20207;-78
2021/11/07 07:35:27;;;;;;;27.80;14.60;;;6.20;92.90;;;;;;5032285;28;20207;-77
2021/11/07 07:37:55;;;;;;;23.33;14.95;;;6.30;92.10;;;;;;5033000;28;20209;-77
2021/11/07 07:40:23;;;;;;;24.95;14.95;;;6.40;91.10;;;;;;5038497;28;20235;-78
2021/11/07 07:42:50;;;;;;;24.33;14.70;;;6.50;90.60;;;;;;5045928;28;20229;-77
2021/11/07 07:45:17;;;;;;;23.13;15.00;;;6.50;89.50;;;;;;5045666;28;20602;-78
2021/11/07 07:47:44;;;;;;;26.20;13.23;;;6.50;88.30;;;;;;5038553;28;20278;-78
2021/11/07 07:50:13;;;;;;;20.10;12.80;;;6.50;88.40;;;;;;5036044;28;20649;-78
2021/11/07 07:52:41;;;;;;;21.50;14.13;;;6.50;87.70;;;;;;5037216;28;20212;-77
2021/11/07 07:55:09;;;;;;;20.85;13.13;;;6.50;86.70;;;;;;5036759;28;20269;-77
2021/11/07 07:57:39;;;;;;;24.50;14.07;;;6.50;86.70;;;;;;5035830;28;20286;-77
2021/11/07 08:00:07;;;;;;;21.90;13.75;;;6.60;86.50;;;;;;5035546;28;20212;-78
2021/11/07 08:02:34;;;;;;;18.83;12.63;;;6.50;85.40;;;;;;5037885;28;20212;-77
2021/11/07 08:05:01;;;;;;;21.83;13.73;;;6.60;85.60;;;;;;5044880;28;20290;-77
2021/11/07 08:07:28;;;;;;;20.17;13.02;;;6.60;85.00;;;;;;5044257;28;20750;-78
2021/11/07 08:09:55;;;;;;;21.45;12.50;;;6.70;84.50;;;;;;5045975;28;20203;-78
2021/11/07 08:12:22;;;;;;;22.25;12.18;;;6.80;83.60;;;;;;5046735;28;20266;-78
2021/11/07 08:14:51;;;;;;;20.90;11.65;;;6.90;82.30;;;;;;5044451;28;20265;-77
2021/11/07 08:17:18;;;;;;;22.92;13.98;;;6.90;82.00;;;;;;5049287;28;20298;-78
2021/11/07 08:19:46;;;;;;;19.60;13.30;;;6.90;81.10;;;;;;5046958;28;20216;-79
2021/11/07 08:22:13;;;;;;;21.60;12.80;;;6.80;81.60;;;;;;5046588;28;20211;-78
2021/11/07 08:24:40;;;;;;;20.52;12.63;;;6.80;82.60;;;;;;5045650;28;20771;-77
2021/11/07 08:27:08;;;;;;;20.50;10.90;;;6.90;82.40;;;;;;5042932;28;20200;-78
2021/11/07 08:29:36;;;;;;;18.55;11.75;;;7.10;81.30;;;;;;5054301;28;20288;-78
2021/11/07 08:32:06;;;;;;;20.17;13.02;;;7.20;78.80;;;;;;5053780;28;20672;-79
2021/11/07 08:34:34;;;;;;;20.75;12.50;;;7.40;76.00;;;;;;5045503;28;20227;-78
2021/11/07 08:37:05;;;;;;;18.55;11.98;;;7.60;75.20;;;;;;5041414;28;20221;-78
2021/11/07 08:39:34;;;;;;;19.17;11.13;;;7.60;73.80;;;;;;5041199;28;20252;-79
2021/11/07 08:42:06;;;;;;;16.05;10.88;;;7.70;73.40;;;;;;5039203;28;20293;-77
2021/11/07 09:01:14;;;;;;;18.20;11.52;;;7.80;71.40;;;;;;5026130;28;20231;-78
2021/11/07 09:03:45;;;;;;;19.20;12.57;;;7.80;70.40;;;;;;5033944;28;20245;-79
2021/11/07 09:06:23;;;;;;;20.75;12.35;;;7.90;71.10;;;;;;5034715;28;20469;-78
2021/11/07 09:08:51;;;;;;;18.83;12.32;;;8.00;70.60;;;;;;5034825;28;20213;-78
2021/11/07 09:11:19;;;;;;;18.98;12.38;;;8.00;69.90;;;;;;5035133;28;20237;-78
2021/11/07 09:13:47;;;;;;;18.00;11.27;;;8.00;69.50;;;;;;5034082;28;20226;-78
2021/11/07 09:16:15;;;;;;;17.73;12.50;;;8.00;69.50;;;;;;5035009;28;20686;-79
2021/11/07 09:18:44;;;;;;;19.75;12.93;;;8.10;69.90;;;;;;5034912;28;20211;-79
2021/11/07 09:21:14;;;;;;;19.75;12.60;;;8.10;69.20;;;;;;5035962;28;20274;-79
2021/11/07 09:23:46;;;;;;;19.55;13.05;;;8.10;68.90;;;;;;5035346;28;20262;-79
2021/11/07 09:29:01;;;;;;;24.90;13.63;;;8.20;68.40;;;;;;5045356;28;20206;-80
2021/11/07 09:31:36;;;;;;;18.92;12.27;;;8.10;68.50;;;;;;5046280;28;20671;-79
2021/11/07 09:37:00;;;;;;;18.40;12.15;;;8.20;69.30;;;;;;5046194;28;20195;-80
2021/11/07 09:39:33;;;;;;;22.23;13.65;;;8.40;68.60;;;;;;5043943;28;20203;-81
2021/11/07 09:44:43;;;;;;;17.90;11.80;;;8.50;67.30;;;;;;5032953;28;20261;-80
2021/11/07 09:47:13;;;;;;;19.55;11.90;;;8.50;67.30;;;;;;5048167;28;20190;-81
2021/11/07 09:49:46;;;;;;;16.85;11.60;;;8.60;67.30;;;;;;5057167;28;20214;-83
2021/11/07 09:52:18;;;;;;;19.50;11.85;;;8.60;66.40;;;;;;5057909;28;20187;-83
2021/11/07 09:54:49;;;;;;;17.73;11.85;;;8.60;66.20;;;;;;5057378;28;20245;-84
2021/11/07 09:57:20;;;;;;;19.45;12.63;;;8.70;65.80;;;;;;5056925;28;20241;-83
2021/11/07 09:59:53;;;;;;;17.38;12.27;;;8.60;65.20;;;;;;5053653;28;20206;-81
2021/11/07 10:02:21;;;;;;;17.17;11.65;;;8.60;65.00;;;;;;5040338;28;20614;-78
2021/11/07 10:04:50;;;;;;;18.52;11.95;;;8.70;64.50;;;;;;5035688;28;20262;-78
2021/11/07 10:07:19;;;;;;;18.77;11.57;;;8.80;64.00;;;;;;5033818;28;20294;-80
2021/11/07 10:09:51;;;;;;;20.13;11.02;;;8.80;63.80;;;;;;5035384;28;20226;-80
2021/11/07 10:12:20;;;;;;;16.77;10.90;;;8.90;63.20;;;;;;5034829;28;20213;-81
2021/11/07 10:14:52;;;;;;;15.70;11.45;;;8.80;63.60;;;;;;5036733;28;20238;-81
2021/11/07 10:17:32;;;;;;;15.52;10.52;;;8.90;63.20;;;;;;5035978;28;20253;-80
2021/11/07 10:20:10;;;;;;;15.85;10.63;;;9.10;63.90;;;;;;5039445;28;20204;-81
2021/11/07 10:22:38;;;;;;;15.27;10.68;;;9.00;61.70;;;;;;5038207;28;20198;-81
2021/11/07 10:25:12;;;;;;;18.25;10.40;;;9.10;61.50;;;;;;5037915;28;20230;-80
2021/11/07 10:27:40;;;;;;;16.63;10.95;;;9.20;62.00;;;;;;5038795;28;20220;-80
2021/11/07 10:30:15;;;;;;;15.10;10.65;;;9.20;62.00;;;;;;5041243;28;20575;-80
2021/11/07 10:32:54;;;;;;;16.50;9.80;;;9.20;61.80;;;;;;5041695;28;20302;-80
2021/11/07 10:35:43;;;;;;;15.73;10.40;;;9.30;62.00;;;;;;5044523;28;20238;-80
2021/11/07 10:38:36;;;;;;;17.05;9.00;;;9.20;61.30;;;;;;5046153;28;20263;-80
2021/11/07 10:41:31;;;;;;;11.23;7.90;;;9.20;60.80;;;;;;5048142;28;20211;-79
2021/11/07 10:44:19;;;;;;;12.85;8.57;;;9.30;60.70;;;;;;5019575;28;20326;-81
2021/11/07 10:47:01;;;;;;;14.55;9.20;;;9.40;60.30;;;;;;5020173;28;20227;-81
2021/11/07 10:52:22;;;;;;;11.68;8.60;;;9.60;59.30;;;;;;5041255;28;20253;-81
2021/11/07 10:54:50;;;;;;;12.90;7.63;;;9.70;58.30;;;;;;5044273;28;20249;-81
2021/11/07 10:57:20;;;;;;;10.90;7.97;;;9.80;58.10;;;;;;5041955;28;20200;-80
2021/11/07 11:00:13;;;;;;;12.73;7.82;;;9.90;57.70;;;;;;5042684;28;20199;-80
2021/11/07 11:02:42;;;;;;;11.15;7.63;;;10.00;56.00;;;;;;5044675;28;20199;-81
2021/11/07 11:05:12;;;;;;;8.45;6.45;;;10.00;56.10;;;;;;5043362;28;20273;-80
2021/11/07 11:07:59;;;;;;;9.95;7.07;;;9.80;57.40;;;;;;5039388;28;20215;-81
2021/11/07 11:10:33;;;;;;;11.05;7.00;;;9.70;57.10;;;;;;5037678;28;20290;-79
2021/11/07 11:13:12;;;;;;;9.93;7.25;;;9.60;57.10;;;;;;5038797;28;20202;-80
2021/11/07 11:15:46;;;;;;;10.65;7.47;;;9.50;57.80;;;;;;5038157;28;20212;-80
2021/11/07 11:18:37;;;;;;;9.10;6.90;;;9.40;57.60;;;;;;5022075;28;20195;-79
2021/11/07 11:24:11;;;;;;;9.95;7.25;;;9.40;58.30;;;;;;5046903;28;20246;-79
2021/11/07 11:32:17;;;;;;;11.75;7.05;;;9.30;59.10;;;;;;5056750;28;20271;-78
2021/11/07 11:34:49;;;;;;;11.52;7.50;;;9.30;59.10;;;;;;5057787;28;20770;-79
2021/11/07 11:37:21;;;;;;;10.90;7.13;;;9.30;59.10;;;;;;5057127;28;20202;-79
2021/11/07 11:39:56;;;;;;;9.10;7.38;;;9.20;59.00;;;;;;5051444;28;20214;-78
2021/11/07 11:42:28;;;;;;;11.73;7.80;;;9.30;59.10;;;;;;5039350;28;20210;-78
2021/11/07 11:44:57;;;;;;;12.40;7.65;;;9.30;59.10;;;;;;5047656;28;20223;-79
2021/11/07 11:53:32;;;;;;;9.95;7.18;;;9.10;62.90;;;;;;5052003;28;20226;-80
2021/11/07 11:56:20;;;;;;;11.82;7.38;;;9.10;63.70;;;;;;5049665;28;20207;-79
2021/11/07 11:58:53;;;;;;;8.35;7.20;;;9.00;64.50;;;;;;5043091;28;20207;-77
2021/11/07 12:01:28;;;;;;;10.85;7.75;;;9.00;66.20;;;;;;5043886;28;20224;-79
2021/11/07 12:04:14;;;;;;;11.02;7.22;;;8.90;67.60;;;;;;5043736;28;20252;-79
2021/11/07 12:06:47;;;;;;;12.15;8.38;;;8.90;67.70;;;;;;5052266;28;20235;-77
2021/11/07 12:09:43;;;;;;;10.93;7.72;;;8.80;69.50;;;;;;5050087;28;20211;-78
2021/11/07 12:12:16;;;;;;;9.43;7.60;;;8.80;70.30;;;;;;5053076;28;20196;-79
2021/11/07 12:15:05;;;;;;;12.15;7.53;;;8.70;70.80;;;;;;5051255;28;20288;-78
2021/11/07 12:17:35;;;;;;;10.10;7.78;;;8.80;70.70;;;;;;5049130;28;20214;-79
2021/11/07 12:20:21;;;;;;;9.77;7.47;;;8.90;70.10;;;;;;5044866;28;20261;-78
2021/11/07 12:22:50;;;;;;;8.45;6.82;;;8.80;69.70;;;;;;5036511;28;20524;-78
2021/11/07 12:25:17;;;;;;;10.45;7.65;;;9.00;69.30;;;;;;5035615;28;20242;-77
2021/11/07 12:27:51;;;;;;;6.45;5.05;;;9.10;67.80;;;;;;5042311;28;20309;-78
2021/11/07 12:30:25;;;;;;;7.70;6.30;;;9.10;65.90;;;;;;5038442;28;20206;-77
2021/11/07 12:33:03;;;;;;;7.40;5.43;;;9.10;66.60;;;;;;5050353;28;20218;-77
2021/11/07 12:35:36;;;;;;;9.82;6.15;;;9.30;66.50;;;;;;5038026;28;20198;-77
2021/11/07 12:40:58;;;;;;;9.88;6.43;;;9.30;66.10;;;;;;5035779;28;20221;-79
2021/11/07 12:43:43;;;;;;;7.68;5.95;;;9.30;66.80;;;;;;5035358;28;20235;-77
2021/11/07 12:49:18;;;;;;;7.38;5.95;;;9.30;67.60;;;;;;5039443;28;20191;-77
2021/11/07 12:51:47;;;;;;;8.05;6.25;;;9.30;67.70;;;;;;5037094;28;20215;-79
2021/11/07 12:54:18;;;;;;;9.95;6.60;;;9.30;67.90;;;;;;5043197;28;20665;-79
2021/11/07 12:56:55;;;;;;;9.45;6.63;;;9.40;69.90;;;;;;5028582;28;20220;-77
2021/11/07 12:59:29;;;;;;;10.52;7.28;;;9.30;72.80;;;;;;5017164;28;20677;-79
2021/11/07 13:02:22;;;;;;;8.68;6.65;;;9.20;75.40;;;;;;5016805;28;20196;-78
2021/11/07 13:04:55;;;;;;;9.13;7.00;;;9.20;78.90;;;;;;5017236;28;20747;-78
2021/11/07 13:07:25;;;;;;;8.98;7.28;;;9.10;80.70;;;;;;5019728;28;20232;-79
2021/11/07 13:09:57;;;;;;;8.43;6.85;;;9.00;84.80;;;;;;5019552;28;20218;-77
2021/11/07 13:12:28;;;;;;;11.30;8.05;;;8.80;88.00;;;;;;5018303;28;20231;-80
2021/11/07 13:18:10;;;;;;;11.48;8.70;;;8.70;91.20;;;;;;5017698;28;20274;-79
2021/11/07 13:21:02;;;;;;;11.52;7.30;;;8.60;92.60;;;;;;5024273;28;20198;-78
2021/11/07 13:23:46;;;;;;;16.67;8.50;;;8.60;93.00;;;;;;5031421;28;20231;-79
2021/11/07 13:26:29;;;;;;;10.20;8.55;;;8.50;93.80;;;;;;5020160;28;20401;-79
2021/11/07 13:29:06;;;;;;;10.15;8.63;;;8.50;94.40;;;;;;5024119;28;20242;-78
2021/11/07 13:31:47;;;;;;;11.90;8.93;;;8.40;95.10;;;;;;5025410;28;20297;-79
2021/11/07 13:34:18;;;;;;;10.52;8.20;;;8.40;95.60;;;;;;5022311;28;20262;-79
2021/11/07 13:36:48;;;;;;;11.85;9.00;;;8.40;96.50;;;;;;5030807;28;20312;-78
2021/11/07 13:39:23;;;;;;;13.15;8.80;;;8.30;97.20;;;;;;5028665;28;20263;-78
2021/11/07 13:41:56;;;;;;;12.93;8.43;;;8.30;97.20;;;;;;5028804;28;20203;-77
2021/11/07 13:44:27;;;;;;;12.20;8.82;;;8.30;97.20;;;;;;5029586;28;20230;-78
2021/11/07 13:47:00;;;;;;;11.73;7.38;;;8.30;97.20;;;;;;5033481;28;20218;-79
2021/11/07 13:49:29;;;;;;;8.30;7.18;;;8.30;97.30;;;;;;5046904;28;20221;-80
2021/11/07 13:51:57;;;;;;;9.38;8.00;;;8.30;97.30;;;;;;5046444;28;20229;-80
2021/11/07 13:54:25;;;;;;;10.25;6.80;;;8.30;96.60;;;;;;5043311;28;20231;-80
2021/11/07 13:56:54;;;;;;;10.00;8.15;;;8.30;96.70;;;;;;5043196;28;20241;-79
2021/11/07 13:59:33;;;;;;;9.77;7.97;;;8.40;96.50;;;;;;5038427;28;20211;-80